Map

Track Data

SID SEASON NUMBER BASIN SUBBASIN NAME ISO_TIME NATURE LAT LON WMO_WIND WMO_PRES WMO_AGENCY TRACK_TYPE DIST2LAND LANDFALL IFLAG USA_AGENCY USA_ATCF_ID USA_LAT USA_LON USA_RECORD USA_STATUS USA_WIND USA_PRES USA_SSHS USA_R34_NE USA_R34_SE USA_R34_SW USA_R34_NW USA_R50_NE USA_R50_SE USA_R50_SW USA_R50_NW USA_R64_NE USA_R64_SE USA_R64_SW USA_R64_NW USA_POCI USA_ROCI USA_RMW USA_EYE TOKYO_LAT TOKYO_LON TOKYO_GRADE TOKYO_WIND TOKYO_PRES TOKYO_R50_DIR TOKYO_R50_LONG TOKYO_R50_SHORT TOKYO_R30_DIR TOKYO_R30_LONG TOKYO_R30_SHORT TOKYO_LAND CMA_LAT CMA_LON CMA_CAT CMA_WIND CMA_PRES HKO_LAT HKO_LON HKO_CAT HKO_WIND HKO_PRES NEWDELHI_LAT NEWDELHI_LON NEWDELHI_GRADE NEWDELHI_WIND NEWDELHI_PRES NEWDELHI_CI NEWDELHI_DP NEWDELHI_POCI REUNION_LAT REUNION_LON REUNION_TYPE REUNION_WIND REUNION_PRES REUNION_TNUM REUNION_CI REUNION_RMW REUNION_R34_NE REUNION_R34_SE REUNION_R34_SW REUNION_R34_NW REUNION_R50_NE REUNION_R50_SE REUNION_R50_SW REUNION_R50_NW REUNION_R64_NE REUNION_R64_SE REUNION_R64_SW REUNION_R64_NW BOM_LAT BOM_LON BOM_TYPE BOM_WIND BOM_PRES BOM_TNUM BOM_CI BOM_RMW BOM_R34_NE BOM_R34_SE BOM_R34_SW BOM_R34_NW BOM_R50_NE BOM_R50_SE BOM_R50_SW BOM_R50_NW BOM_R64_NE BOM_R64_SE BOM_R64_SW BOM_R64_NW BOM_ROCI BOM_POCI BOM_EYE BOM_POS_METHOD BOM_PRES_METHOD NADI_LAT NADI_LON NADI_CAT NADI_WIND NADI_PRES WELLINGTON_LAT WELLINGTON_LON WELLINGTON_WIND WELLINGTON_PRES DS824_LAT DS824_LON DS824_STAGE DS824_WIND DS824_PRES TD9636_LAT TD9636_LON TD9636_STAGE TD9636_WIND TD9636_PRES TD9635_LAT TD9635_LON TD9635_WIND TD9635_PRES TD9635_ROCI NEUMANN_LAT NEUMANN_LON NEUMANN_CLASS NEUMANN_WIND NEUMANN_PRES MLC_LAT MLC_LON MLC_CLASS MLC_WIND MLC_PRES USA_GUST BOM_GUST BOM_GUST_PER REUNION_GUST REUNION_GUST_PER USA_SEAHGT USA_SEARAD_NE USA_SEARAD_SE USA_SEARAD_SW USA_SEARAD_NW STORM_SPEED STORM_DIR
1900231N19143 1900 18 WP MM NOT_NAMED 1900-08-18 16:00:00 NR 18.5000 142.700 main 1800 1792 __________O___ -1 18.5000 142.700 7 5 276
1900231N19143 1900 18 WP MM NOT_NAMED 1900-08-18 18:00:00 NR 18.5166 142.533 main 1792 1785 __________P___ -1 18.5166 142.533 7 5 276
1900231N19143 1900 18 WP MM NOT_NAMED 1900-08-18 21:00:00 NR 18.5414 142.271 main 1785 1764 __________P___ -1 18.5414 142.271 7 5 275
1900231N19143 1900 18 WP MM NOT_NAMED 1900-08-19 00:00:00 NR 18.5663 141.977 main 1764 1750 __________P___ -1 18.5663 141.977 7 6 275
1900231N19143 1900 18 WP MM NOT_NAMED 1900-08-19 03:00:00 NR 18.5915 141.630 main 1750 1747 __________P___ -1 18.5915 141.630 7 7 274
1900231N19143 1900 18 WP MM NOT_NAMED 1900-08-19 04:00:00 NR 18.6000 141.500 main 1747 1735 __________O___ -1 18.6000 141.500 7 8 274
1900231N19143 1900 18 WP MM NOT_NAMED 1900-08-19 06:00:00 NR 18.6169 141.215 main 1735 1707 __________P___ -1 18.6169 141.215 7 9 273
1900231N19143 1900 18 WP MM NOT_NAMED 1900-08-19 09:00:00 NR 18.6422 140.744 main 1707 1671 __________P___ -1 18.6422 140.744 7 9 273
1900231N19143 1900 18 WP MM NOT_NAMED 1900-08-19 12:00:00 NR 18.6671 140.248 main 1671 1650 __________P___ -1 18.6671 140.248 7 9 273
1900231N19143 1900 18 WP MM NOT_NAMED 1900-08-19 15:00:00 NR 18.6918 139.757 main 1650 1639 __________P___ -1 18.6918 139.757 7 9 273
1900231N19143 1900 18 WP MM NOT_NAMED 1900-08-19 16:00:00 NR 18.7000 139.600 main 1639 1623 __________O___ -1 18.7000 139.600 7 8 273
1900231N19143 1900 18 WP MM NOT_NAMED 1900-08-19 18:00:00 NR 18.7109 139.327 main 1623 1602 __________P___ -1 18.7109 139.327 7 8 272
1900231N19143 1900 18 WP MM NOT_NAMED 1900-08-19 21:00:00 NR 18.7274 138.936 main 1602 1571 __________P___ -1 18.7274 138.936 7 7 273
1900231N19143 1900 18 WP MM NOT_NAMED 1900-08-20 00:00:00 NR 18.7499 138.548 main 1571 1538 __________P___ -1 18.7499 138.548 7 8 274
1900231N19143 1900 18 WP MM NOT_NAMED 1900-08-20 03:00:00 NR 18.7847 138.143 main 1538 1529 __________P___ -1 18.7847 138.143 7 8 276
1900231N19143 1900 18 WP MM NOT_NAMED 1900-08-20 04:00:00 NR 18.8000 138.000 main 1529 1501 __________O___ -1 18.8000 138.000 7 9 276
1900231N19143 1900 18 WP MM NOT_NAMED 1900-08-20 06:00:00 NR 18.8307 137.689 main 1501 1460 __________P___ -1 18.8307 137.689 7 9 277
1900231N19143 1900 18 WP MM NOT_NAMED 1900-08-20 09:00:00 NR 18.8892 137.198 main 1460 1420 __________P___ -1 18.8892 137.198 7 10 278
1900231N19143 1900 18 WP MM NOT_NAMED 1900-08-20 12:00:00 NR 18.9653 136.688 main 1420 1381 __________P___ -1 18.9653 136.688 7 10 280
1900231N19143 1900 18 WP MM NOT_NAMED 1900-08-20 15:00:00 NR 19.0624 136.171 main 1381 1363 __________P___ -1 19.0624 136.171 7 10 282
1900231N19143 1900 18 WP MM NOT_NAMED 1900-08-20 16:00:00 NR 19.1000 136.000 main 1363 1337 __________O___ -1 19.1000 136.000 3 10 282
1900231N19143 1900 18 WP MM NOT_NAMED 1900-08-20 18:00:00 NR 19.1644 135.659 main 1342 1290 __________P___ -1 19.1644 135.659 3 10 283
1900231N19143 1900 18 WP MM NOT_NAMED 1900-08-20 21:00:00 NR 19.2796 135.146 main 1290 1248 __________P___ -1 19.2796 135.146 3 10 285
1900231N19143 1900 18 WP MM NOT_NAMED 1900-08-21 00:00:00 NR 19.4283 134.642 main 1248 1222 __________P___ -1 19.4283 134.642 3 10 290
1900231N19143 1900 18 WP MM NOT_NAMED 1900-08-21 03:00:00 NR 19.6228 134.156 main 1222 1210 __________P___ -1 19.6228 134.156 3 10 294
1900231N19143 1900 18 WP MM NOT_NAMED 1900-08-21 04:00:00 NR 19.7000 134.000 main 1210 1189 __________O___ -1 19.7000 134.000 4 10 300
1900231N19143 1900 18 WP MM NOT_NAMED 1900-08-21 06:00:00 NR 19.8738 133.692 main 1195 1161 __________P___ -1 19.8738 133.692 4 10 304
1900231N19143 1900 18 WP MM NOT_NAMED 1900-08-21 09:00:00 NR 20.1788 133.248 main 1161 1125 __________P___ -1 20.1788 133.248 4 10 309
1900231N19143 1900 18 WP MM NOT_NAMED 1900-08-21 12:00:00 NR 20.5204 132.827 main 1125 1093 __________P___ -1 20.5204 132.827 4 10 312
1900231N19143 1900 18 WP MM NOT_NAMED 1900-08-21 15:00:00 NR 20.8796 132.428 main 1093 1086 __________P___ -1 20.8796 132.428 4 10 314
1900231N19143 1900 18 WP MM NOT_NAMED 1900-08-21 16:00:00 NR 21.0000 132.300 main 1086 1061 __________O___ -1 21.0000 132.300 4 10 313
1900231N19143 1900 18 WP MM NOT_NAMED 1900-08-21 18:00:00 NR 21.2090 132.046 main 1061 1041 __________P___ -1 21.2090 132.046 4 9 313
1900231N19143 1900 18 WP MM NOT_NAMED 1900-08-21 21:00:00 NR 21.5286 131.685 main 1041 1003 __________P___ -1 21.5286 131.685 4 9 315
1900231N19143 1900 18 WP MM NOT_NAMED 1900-08-22 00:00:00 NR 21.8722 131.341 main 1003 959 __________P___ -1 21.8722 131.341 4 10 319
1900231N19143 1900 18 WP MM NOT_NAMED 1900-08-22 03:00:00 NR 22.2585 131.009 main 959 946 __________P___ -1 22.2585 131.009 4 10 322
1900231N19143 1900 18 WP MM NOT_NAMED 1900-08-22 04:00:00 NR 22.4000 130.900 main 946 918 __________O___ -1 22.4000 130.900 4 11 325
1900231N19143 1900 18 WP MM NOT_NAMED 1900-08-22 06:00:00 NR 22.7073 130.670 main 918 865 __________P___ -1 22.7073 130.670 4 12 327
1900231N19143 1900 18 WP MM NOT_NAMED 1900-08-22 09:00:00 NR 23.2126 130.331 main 865 806 __________P___ -1 23.2126 130.331 4 12 330
1900231N19143 1900 18 WP MM NOT_NAMED 1900-08-22 12:00:00 NR 23.7541 130.004 main 806 754 __________P___ -1 23.7541 130.004 4 12 332
1900231N19143 1900 18 WP MM NOT_NAMED 1900-08-22 15:00:00 NR 24.3130 129.697 main 754 733 __________P___ -1 24.3130 129.697 4 13 334
1900231N19143 1900 18 WP MM NOT_NAMED 1900-08-22 16:00:00 NR 24.5000 129.600 main 733 692 __________O___ -1 24.5000 129.600 4 12 335
1900231N19143 1900 18 WP MM NOT_NAMED 1900-08-22 18:00:00 NR 24.8718 129.415 main 692 642 __________P___ -1 24.8718 129.415 4 12 336
1900231N19143 1900 18 WP MM NOT_NAMED 1900-08-22 21:00:00 NR 25.4244 129.156 main 642 585 __________P___ -1 25.4244 129.156 4 12 338
1900231N19143 1900 18 WP MM NOT_NAMED 1900-08-23 00:00:00 NR 25.9727 128.913 main 585 538 __________P___ -1 25.9727 128.913 4 12 339
1900231N19143 1900 18 WP MM NOT_NAMED 1900-08-23 03:00:00 NR 26.5184 128.678 main 538 521 __________P___ -1 26.5184 128.678 4 12 339
1900231N19143 1900 18 WP MM NOT_NAMED 1900-08-23 04:00:00 NR 26.7000 128.600 main 521 __________O___ -1 26.7000 128.600 4 12 340

Digital Typhoon Data and Search

About IBTrACS Database

This database is a web-friendly format of International Best Track Archive for Climate Stewardship (IBTrACS), a global best track data archive curated by NOAA dating back to 1842.

Updated: 2021-11-26